This is the latest recevied weather packets stored in our database for station/object KB9HGI-1. If no packets are shown the sender has not sent any weather packets the latest 10 day(s).
| Time | Temp. | Humidity | Pressure | Rain* | Wind** | Luminosity | Snow |
|---|---|---|---|---|---|---|---|
| 1777225853 | 25° C | 52% | 1009.5 hPa | 0 mm | - | 969 W/m² | - |
| 1777225253 | 25° C | 51% | 1009.5 hPa | 0 mm | - | 969 W/m² | - |
| 1777224652 | 25° C | 52% | 1009.8 hPa | 0 mm | - | 958 W/m² | - |
| 1777221649 | 23.33° C | 58% | 1010.2 hPa | 0 mm | - | 912 W/m² | - |
| 1777221049 | 23.33° C | 57% | 1010.2 hPa | 0 mm | - | 874 W/m² | - |
| 1777217445 | 20.56° C | 64% | 1010.8 hPa | 0 mm | - | 763 W/m² | - |
| 1777215581 | 19.44° C | 66% | 1011.2 hPa | 0 mm | - | 682 W/m² | - |
| 1777211915 | 15.56° C | 77% | 1011.5 hPa | 0 mm | - | 517 W/m² | - |
| 1777201609 | 11.11° C | 84% | 1010.8 hPa | 0 mm | - | 0 W/m² | - |
| 1777194339 | 12.78° C | 78% | 1010.5 hPa | 0 mm | - | 0 W/m² | - |
| 1777191336 | 13.33° C | 74% | 1010.2 hPa | 0 mm | - | 0 W/m² | - |
| 1777189534 | 13.89° C | 71% | 1010.2 hPa | 0 mm | - | 0 W/m² | - |
| 1777188301 | 14.44° C | 70% | 1010.2 hPa | 0 mm | - | 0 W/m² | - |
| 1777185299 | 15° C | 68% | 1010.5 hPa | 0 mm | - | 0 W/m² | - |
| 1777180970 | 16.67° C | 62% | 1009.8 hPa | 0 mm | - | 0 W/m² | - |
| 1777177366 | 17.22° C | 55% | 1009.5 hPa | 0 mm | - | 0 W/m² | - |
| 1777176165 | 17.78° C | 52% | 1010.2 hPa | 0 mm | - | 0 W/m² | - |
| 1777175471 | 18.33° C | 51% | 1009.8 hPa | 0 mm | - | 0 W/m² | - |
| 1777172468 | 19.44° C | 47% | 1009.5 hPa | 0 mm | - | 0 W/m² | - |
| 1777170635 | 19.44° C | 45% | 1008.8 hPa | 0 mm | - | 0 W/m² | - |
| 1777155556 | 25° C | 41% | 1008.1 hPa | 0 mm | - | 483 W/m² | - |
| 1777153755 | 25° C | 43% | 1007.8 hPa | 0 mm | - | 598 W/m² | - |
| 1777153154 | 25° C | 41% | 1008.1 hPa | 0 mm | - | 626 W/m² | - |
| 1777142280 | 23.89° C | 48% | 1009.5 hPa | 0 mm | - | 995 W/m² | - |
| 1777141078 | 23.33° C | 49% | 1009.5 hPa | 0 mm | - | 997 W/m² | - |
* Rain latest hour (hover to see other rain measurements)
** Current wind speed in m/s (hover to see current wind gust speed)